Time;durP1;ratioP1;P1;durP2;ratioP2;P2;SDS_P1;SDS_P2;PMS_P1;PMS_P2;Temp;Humidity;BMP_temperature;BMP_pressure;BME280_temperature;BME280_humidity;BME280_pressure;Samples;Min_cycle;Max_cycle;Signal;HPM_P1;HPM_P2
2024/01/22 00:00:37;;;;;;;2.53;1.80;;;8.70;99.90;;;;;;5090266;28;20247;-73
2024/01/22 00:03:03;;;;;;;5.95;1.80;;;8.70;99.90;;;;;;5080554;28;21136;-74
2024/01/22 00:05:29;;;;;;;3.35;1.65;;;8.80;99.90;;;;;;5088454;28;20248;-74
2024/01/22 00:07:55;;;;;;;2.87;1.70;;;8.70;99.90;;;;;;5088926;28;20187;-74
2024/01/22 00:10:20;;;;;;;2.90;1.60;;;8.70;99.90;;;;;;5088696;28;20770;-74
2024/01/22 00:12:46;;;;;;;3.00;1.57;;;8.80;99.90;;;;;;5089042;28;20722;-74
2024/01/22 00:15:12;;;;;;;2.50;1.70;;;8.80;99.90;;;;;;5079656;28;20242;-73
2024/01/22 00:17:37;;;;;;;4.23;2.07;;;8.80;99.90;;;;;;5077227;28;20191;-73
2024/01/22 00:20:04;;;;;;;4.57;1.60;;;8.90;99.90;;;;;;5088614;28;20204;-73
2024/01/22 00:22:29;;;;;;;4.38;1.42;;;8.90;99.90;;;;;;5080928;28;20278;-73
2024/01/22 00:24:55;;;;;;;2.47;1.20;;;8.90;99.90;;;;;;5073626;28;20259;-73
2024/01/22 00:27:21;;;;;;;3.83;1.50;;;8.90;99.90;;;;;;5081072;28;20677;-73
2024/01/22 00:29:46;;;;;;;3.33;2.07;;;9.00;99.90;;;;;;5095338;28;20187;-73
2024/01/22 00:32:12;;;;;;;3.47;1.50;;;9.00;99.90;;;;;;5101251;28;20184;-73
2024/01/22 00:34:38;;;;;;;3.10;1.20;;;9.00;99.90;;;;;;5075526;28;20198;-73
2024/01/22 00:37:04;;;;;;;4.13;1.50;;;9.10;99.90;;;;;;5092611;28;20589;-73
2024/01/22 00:39:30;;;;;;;2.20;1.20;;;9.10;99.90;;;;;;5097662;28;20571;-73
2024/01/22 00:41:56;;;;;;;4.20;1.33;;;9.20;99.90;;;;;;5072806;28;20932;-73
2024/01/22 00:44:22;;;;;;;4.75;1.38;;;9.30;99.90;;;;;;5084110;28;21246;-73
2024/01/22 00:46:48;;;;;;;2.03;1.10;;;9.30;99.90;;;;;;5085498;28;20260;-73
2024/01/22 00:49:15;;;;;;;2.95;1.40;;;9.40;99.90;;;;;;5065631;28;20682;-73
2024/01/22 00:51:40;;;;;;;2.47;1.02;;;9.40;99.90;;;;;;5082441;28;20200;-73
2024/01/22 00:54:06;;;;;;;3.00;1.20;;;9.50;99.90;;;;;;5080829;28;20210;-73
2024/01/22 00:56:33;;;;;;;3.53;1.10;;;9.60;99.90;;;;;;5079980;28;20168;-73
2024/01/22 00:58:59;;;;;;;3.63;1.30;;;9.60;99.90;;;;;;5081537;28;20227;-73
2024/01/22 01:01:25;;;;;;;3.08;0.95;;;9.70;99.90;;;;;;5088868;28;20195;-73
2024/01/22 01:03:51;;;;;;;4.73;1.23;;;9.80;99.90;;;;;;5072340;28;20172;-76
2024/01/22 01:06:16;;;;;;;2.40;1.00;;;9.80;99.90;;;;;;5083002;28;20633;-76
2024/01/22 01:08:42;;;;;;;4.13;0.90;;;9.90;99.90;;;;;;5084052;28;20218;-75
2024/01/22 01:11:08;;;;;;;5.23;1.07;;;9.90;99.90;;;;;;5068139;28;20624;-75
2024/01/22 01:13:34;;;;;;;2.70;1.10;;;10.00;99.90;;;;;;5084846;28;20175;-75
2024/01/22 01:15:59;;;;;;;1.70;0.90;;;10.00;99.90;;;;;;5084060;28;20180;-75
2024/01/22 01:18:25;;;;;;;3.70;1.30;;;10.10;99.90;;;;;;5058156;28;20211;-75
2024/01/22 01:20:51;;;;;;;2.00;0.90;;;10.10;99.90;;;;;;5083864;28;20175;-75
2024/01/22 01:23:16;;;;;;;1.90;1.00;;;10.10;99.90;;;;;;5075397;28;20976;-75
2024/01/22 01:25:42;;;;;;;2.80;0.90;;;10.20;99.90;;;;;;5108757;28;20569;-75
2024/01/22 01:28:08;;;;;;;3.60;1.70;;;10.20;99.90;;;;;;5084348;28;20176;-75
2024/01/22 01:30:34;;;;;;;5.03;1.00;;;10.20;99.90;;;;;;5079455;28;20172;-75
2024/01/22 01:32:59;;;;;;;1.97;0.90;;;10.30;99.90;;;;;;5089155;28;20254;-75
2024/01/22 01:35:25;;;;;;;2.87;1.37;;;10.30;99.90;;;;;;5073248;28;20169;-76
2024/01/22 01:37:52;;;;;;;2.03;1.10;;;10.30;99.90;;;;;;5087358;28;20193;-75
2024/01/22 01:40:18;;;;;;;1.85;1.00;;;10.40;99.90;;;;;;5074643;28;20259;-75
2024/01/22 01:42:43;;;;;;;2.43;1.00;;;10.40;99.90;;;;;;5079884;28;20204;-75
2024/01/22 01:45:13;;;;;;;2.03;0.73;;;10.40;99.90;;;;;;5079519;28;20172;-76
2024/01/22 01:47:41;;;;;;;2.10;0.73;;;10.40;99.90;;;;;;5075771;28;20657;-76
2024/01/22 01:50:07;;;;;;;2.70;0.88;;;10.50;99.90;;;;;;5092580;28;20278;-72
2024/01/22 01:52:33;;;;;;;2.85;0.80;;;10.50;99.90;;;;;;5083310;28;20206;-71
2024/01/22 01:55:00;;;;;;;2.23;0.80;;;10.50;99.90;;;;;;5082369;28;20184;-72
2024/01/22 01:57:52;;;;;;;1.70;0.80;;;10.50;99.90;;;;;;5090759;28;20623;-72
2024/01/22 02:00:18;;;;;;;1.67;0.80;;;10.50;99.90;;;;;;5080456;28;20211;-72
2024/01/22 02:02:44;;;;;;;2.00;0.90;;;10.60;99.90;;;;;;5091289;28;20202;-72
2024/01/22 02:05:13;;;;;;;1.90;0.70;;;10.60;99.90;;;;;;5090543;28;20222;-72
2024/01/22 02:07:39;;;;;;;1.40;0.63;;;10.60;99.90;;;;;;5086964;28;20286;-72
2024/01/22 02:10:05;;;;;;;1.70;0.90;;;10.70;99.90;;;;;;5078141;28;20771;-72
2024/01/22 02:12:30;;;;;;;4.32;0.95;;;10.70;99.90;;;;;;5088518;28;20171;-72
2024/01/22 02:14:56;;;;;;;1.60;0.70;;;10.70;99.90;;;;;;5081264;28;20164;-72
2024/01/22 02:17:22;;;;;;;2.23;0.87;;;10.70;99.90;;;;;;5105905;28;20628;-72
2024/01/22 02:19:49;;;;;;;5.10;1.30;;;10.70;99.90;;;;;;5070624;28;20606;-72
2024/01/22 02:22:15;;;;;;;3.28;0.90;;;10.70;99.90;;;;;;5053891;28;20578;-72
2024/01/22 02:24:41;;;;;;;1.80;0.90;;;10.70;99.90;;;;;;5071403;28;20176;-72
2024/01/22 02:27:07;;;;;;;2.00;0.67;;;10.70;99.90;;;;;;5086563;28;20209;-72
2024/01/22 02:29:32;;;;;;;3.37;0.83;;;10.80;99.90;;;;;;5073637;28;20617;-72
2024/01/22 02:31:58;;;;;;;1.60;0.70;;;10.80;99.90;;;;;;5085343;28;20192;-73
2024/01/22 02:34:24;;;;;;;2.70;0.90;;;10.80;99.90;;;;;;5080112;28;20186;-72
2024/01/22 02:36:50;;;;;;;1.40;0.80;;;10.80;99.90;;;;;;5090571;28;20598;-72
2024/01/22 02:39:16;;;;;;;4.60;0.93;;;10.80;99.90;;;;;;5089328;28;20222;-73
2024/01/22 02:41:42;;;;;;;2.00;1.02;;;10.80;99.90;;;;;;5078481;28;20176;-72
2024/01/22 02:44:08;;;;;;;3.00;0.90;;;10.90;99.90;;;;;;5078268;28;20262;-73
2024/01/22 02:46:33;;;;;;;1.70;0.70;;;10.90;99.90;;;;;;5086149;28;20658;-72
2024/01/22 02:48:59;;;;;;;1.60;0.80;;;10.90;99.90;;;;;;5079707;28;20200;-73
2024/01/22 02:51:25;;;;;;;1.83;0.70;;;10.90;99.90;;;;;;5079673;28;20172;-72
2024/01/22 02:53:53;;;;;;;1.70;0.87;;;10.90;99.90;;;;;;5070265;28;20180;-73
2024/01/22 02:56:20;;;;;;;2.45;0.80;;;10.90;99.90;;;;;;5070432;28;20587;-73
2024/01/22 02:58:46;;;;;;;1.95;0.95;;;10.90;99.90;;;;;;5069820;28;20199;-73
2024/01/22 03:01:11;;;;;;;2.00;0.80;;;11.00;99.90;;;;;;5069917;28;20204;-73
2024/01/22 03:03:37;;;;;;;2.00;0.67;;;11.00;99.90;;;;;;5091420;28;20207;-72
2024/01/22 03:06:03;;;;;;;1.47;0.70;;;11.00;99.90;;;;;;5075121;28;20693;-72
2024/01/22 03:08:29;;;;;;;3.38;0.80;;;11.00;99.90;;;;;;5090137;28;20222;-72
2024/01/22 03:10:55;;;;;;;2.17;0.80;;;11.00;99.90;;;;;;5084181;28;20206;-73
2024/01/22 03:13:21;;;;;;;1.52;0.60;;;11.10;99.90;;;;;;5071040;28;20546;-72
2024/01/22 03:15:47;;;;;;;1.83;0.82;;;11.10;99.90;;;;;;5085927;28;20183;-72
2024/01/22 03:18:13;;;;;;;2.43;0.70;;;11.10;99.90;;;;;;5070552;28;20176;-72
2024/01/22 03:20:38;;;;;;;1.73;0.90;;;11.20;99.90;;;;;;5069683;28;20195;-72
2024/01/22 03:23:04;;;;;;;1.60;0.80;;;11.20;99.90;;;;;;5078039;28;20179;-73
2024/01/22 03:25:30;;;;;;;1.30;0.60;;;11.20;99.90;;;;;;5069815;28;20205;-72
2024/01/22 03:27:56;;;;;;;1.60;0.70;;;11.20;99.90;;;;;;5070833;28;20274;-72
2024/01/22 03:30:21;;;;;;;4.57;0.80;;;11.20;99.90;;;;;;5069433;28;20168;-72
2024/01/22 03:32:47;;;;;;;1.67;0.90;;;11.20;99.90;;;;;;5070894;28;20221;-72
2024/01/22 03:35:13;;;;;;;2.27;0.60;;;11.30;99.90;;;;;;5069074;28;20180;-72
2024/01/22 03:37:40;;;;;;;1.47;0.70;;;11.30;99.90;;;;;;5069143;28;20267;-72
2024/01/22 03:40:06;;;;;;;1.30;0.60;;;11.30;99.90;;;;;;5070666;28;20281;-72
2024/01/22 03:42:32;;;;;;;2.88;0.60;;;11.30;99.90;;;;;;5089070;28;20175;-72
2024/01/22 03:44:58;;;;;;;1.63;0.70;;;11.40;99.90;;;;;;5088949;28;20191;-72
2024/01/22 03:47:23;;;;;;;2.13;0.70;;;11.40;99.90;;;;;;5089247;28;20675;-72
2024/01/22 03:49:49;;;;;;;1.20;0.60;;;11.40;99.90;;;;;;5090473;28;20191;-72
2024/01/22 03:52:15;;;;;;;2.03;0.60;;;11.40;99.90;;;;;;5080725;28;20219;-73
2024/01/22 03:54:41;;;;;;;1.30;0.60;;;11.40;99.90;;;;;;5081867;28;20179;-72
2024/01/22 03:57:07;;;;;;;2.83;0.70;;;11.40;99.90;;;;;;5056887;28;20626;-73
2024/01/22 03:59:39;;;;;;;3.33;0.60;;;11.40;99.90;;;;;;5069135;28;20204;-73
2024/01/22 04:02:05;;;;;;;1.80;0.60;;;11.40;99.90;;;;;;5076361;28;20574;-72
2024/01/22 04:04:30;;;;;;;1.40;0.60;;;11.40;99.90;;;;;;5071755;28;20237;-72
2024/01/22 04:06:56;;;;;;;1.20;0.50;;;11.50;99.90;;;;;;5089173;28;20238;-72
2024/01/22 04:09:22;;;;;;;1.50;0.50;;;11.40;99.90;;;;;;5090202;28;20535;-72
2024/01/22 04:11:47;;;;;;;1.70;0.60;;;11.50;99.90;;;;;;5090660;28;20236;-72
2024/01/22 04:14:13;;;;;;;1.60;0.60;;;11.50;99.90;;;;;;5089382;28;20540;-73
2024/01/22 04:16:39;;;;;;;2.43;0.60;;;11.40;99.90;;;;;;5088518;28;20198;-72
2024/01/22 04:19:04;;;;;;;1.50;0.60;;;11.50;99.90;;;;;;5090354;28;20651;-72
2024/01/22 04:21:31;;;;;;;1.57;0.50;;;11.50;99.90;;;;;;5087046;28;20638;-72
2024/01/22 04:23:56;;;;;;;5.57;0.60;;;11.50;99.90;;;;;;5075999;28;20512;-72
2024/01/22 04:26:22;;;;;;;1.60;0.60;;;11.50;99.90;;;;;;5084233;28;20637;-72
2024/01/22 04:28:48;;;;;;;1.50;0.70;;;11.40;99.90;;;;;;5068760;28;20211;-72
2024/01/22 04:31:14;;;;;;;1.40;0.50;;;11.30;99.90;;;;;;5068971;28;20176;-72
2024/01/22 04:33:43;;;;;;;1.20;0.50;;;11.20;99.90;;;;;;5082956;28;20517;-72
2024/01/22 04:36:09;;;;;;;1.30;0.52;;;11.10;99.90;;;;;;5076403;28;20184;-72
2024/01/22 04:38:34;;;;;;;1.20;0.50;;;11.00;99.90;;;;;;5104647;28;20215;-72
2024/01/22 04:41:00;;;;;;;1.50;0.50;;;10.80;99.90;;;;;;5081732;28;20623;-72
2024/01/22 04:43:26;;;;;;;1.85;0.70;;;10.80;99.90;;;;;;5071939;28;20176;-72
2024/01/22 04:45:52;;;;;;;1.73;0.53;;;10.70;99.90;;;;;;5084544;28;20674;-72
2024/01/22 04:48:18;;;;;;;1.73;0.50;;;10.70;99.90;;;;;;5086875;28;20278;-72
2024/01/22 04:50:44;;;;;;;1.40;0.50;;;10.60;99.90;;;;;;5088427;28;20581;-72
2024/01/22 04:53:09;;;;;;;2.17;0.80;;;10.50;99.90;;;;;;5081629;28;20176;-72
2024/01/22 04:55:35;;;;;;;1.50;0.50;;;10.50;99.90;;;;;;5068040;28;20957;-73
2024/01/22 04:58:01;;;;;;;1.10;0.50;;;10.50;99.90;;;;;;5091640;28;20203;-73
2024/01/22 05:00:26;;;;;;;1.40;0.50;;;10.50;99.90;;;;;;5079706;28;20179;-73
2024/01/22 05:02:52;;;;;;;1.30;0.53;;;10.50;99.90;;;;;;5073084;28;20590;-72
2024/01/22 05:05:18;;;;;;;1.20;0.60;;;10.50;99.90;;;;;;5090331;28;20183;-72
2024/01/22 05:07:44;;;;;;;1.70;0.50;;;10.50;99.90;;;;;;5072003;28;20200;-73
2024/01/22 05:10:10;;;;;;;1.50;0.60;;;10.50;99.90;;;;;;5079452;28;20211;-73
2024/01/22 05:12:36;;;;;;;1.50;0.60;;;10.50;99.90;;;;;;5078003;28;21179;-71
2024/01/22 05:15:02;;;;;;;1.35;0.60;;;10.50;99.90;;;;;;5081250;28;20940;-71
2024/01/22 05:17:28;;;;;;;1.40;0.53;;;10.50;99.90;;;;;;5081535;28;20179;-72
2024/01/22 05:19:54;;;;;;;1.95;0.50;;;10.50;99.90;;;;;;5083580;28;20211;-72
2024/01/22 05:22:21;;;;;;;1.30;0.50;;;10.50;99.90;;;;;;5085227;28;20226;-72
2024/01/22 05:24:47;;;;;;;2.38;0.70;;;10.60;99.90;;;;;;5079364;28;20722;-72
2024/01/22 05:27:13;;;;;;;2.27;0.60;;;10.60;99.90;;;;;;5089138;28;20316;-73
2024/01/22 05:29:40;;;;;;;1.60;0.60;;;10.60;99.90;;;;;;5072413;28;20701;-72
2024/01/22 05:32:06;;;;;;;3.47;0.70;;;10.60;99.90;;;;;;5088696;28;20650;-73
2024/01/22 05:34:31;;;;;;;1.85;0.70;;;10.70;99.90;;;;;;5081367;28;20187;-73
2024/01/22 05:36:57;;;;;;;1.90;0.60;;;10.70;99.90;;;;;;5083719;28;20553;-73
2024/01/22 05:39:23;;;;;;;1.70;0.50;;;10.70;99.90;;;;;;5083952;28;20211;-72
2024/01/22 05:41:48;;;;;;;1.33;0.77;;;10.70;99.90;;;;;;5071540;28;20184;-72
2024/01/22 05:44:14;;;;;;;1.87;0.60;;;10.80;99.90;;;;;;5079287;28;20851;-73
2024/01/22 05:46:40;;;;;;;1.23;0.40;;;10.80;99.90;;;;;;5054667;28;20215;-72
2024/01/22 05:49:05;;;;;;;1.20;0.40;;;10.90;99.90;;;;;;5071154;28;20206;-72
2024/01/22 05:51:31;;;;;;;1.20;0.50;;;10.90;99.90;;;;;;5082618;28;20187;-72
2024/01/22 05:53:59;;;;;;;1.17;0.50;;;10.90;99.90;;;;;;5086657;28;20180;-73
2024/01/22 05:56:27;;;;;;;1.30;0.50;;;11.00;99.90;;;;;;5071956;28;20183;-72
2024/01/22 05:58:53;;;;;;;1.20;0.60;;;11.00;99.90;;;;;;5076915;28;20249;-73
2024/01/22 06:01:20;;;;;;;1.45;0.50;;;11.10;99.90;;;;;;5093192;28;20179;-72
2024/01/22 06:03:46;;;;;;;1.40;0.40;;;11.10;99.90;;;;;;5076141;28;20225;-73
2024/01/22 06:06:13;;;;;;;1.77;0.40;;;11.20;99.90;;;;;;5086946;28;20673;-72
2024/01/22 06:08:41;;;;;;;1.10;0.40;;;11.20;99.90;;;;;;5071882;28;20671;-72
2024/01/22 06:11:07;;;;;;;1.10;0.50;;;11.30;99.90;;;;;;5071243;28;20214;-72
2024/01/22 06:13:38;;;;;;;1.65;0.57;;;11.30;99.90;;;;;;5055790;28;20179;-72
2024/01/22 06:16:07;;;;;;;1.20;0.40;;;11.40;99.90;;;;;;5076067;28;20238;-73
2024/01/22 06:18:33;;;;;;;1.20;0.50;;;11.40;99.90;;;;;;5071785;28;20572;-72
2024/01/22 06:20:59;;;;;;;1.00;0.40;;;11.50;99.90;;;;;;5091170;28;20999;-72
2024/01/22 06:23:25;;;;;;;1.13;0.40;;;11.50;99.90;;;;;;5057383;28;20593;-72
2024/01/22 06:25:50;;;;;;;1.23;0.40;;;11.50;99.90;;;;;;5083531;28;20203;-73
2024/01/22 06:28:16;;;;;;;1.10;0.40;;;11.60;99.90;;;;;;5090887;28;20214;-73
2024/01/22 06:30:43;;;;;;;2.13;0.50;;;11.60;99.90;;;;;;5074114;28;20177;-72
2024/01/22 06:33:09;;;;;;;1.10;0.50;;;11.70;99.90;;;;;;5076015;28;20188;-73
2024/01/22 06:35:35;;;;;;;1.10;0.40;;;11.70;99.90;;;;;;5038189;28;21103;-72
2024/01/22 06:38:00;;;;;;;1.10;0.50;;;11.70;99.90;;;;;;5068658;28;20736;-72
2024/01/22 06:40:28;;;;;;;1.30;0.50;;;11.80;99.90;;;;;;5071831;28;20630;-72
2024/01/22 06:42:54;;;;;;;1.10;0.40;;;11.80;99.90;;;;;;5070791;28;20184;-72
2024/01/22 06:45:19;;;;;;;1.60;0.47;;;11.90;99.90;;;;;;5078809;28;20593;-72
2024/01/22 06:47:45;;;;;;;1.67;0.47;;;12.00;99.90;;;;;;5071629;28;20338;-72
2024/01/22 06:50:11;;;;;;;1.20;0.40;;;11.90;99.90;;;;;;5099025;28;20200;-73
2024/01/22 06:52:37;;;;;;;1.10;0.40;;;12.00;99.90;;;;;;5080228;28;20245;-73
2024/01/22 06:55:03;;;;;;;1.10;0.40;;;12.00;99.90;;;;;;5077975;28;20246;-73
2024/01/22 06:57:30;;;;;;;1.10;0.40;;;12.10;99.90;;;;;;5089902;22;20219;-75
2024/01/22 06:59:56;;;;;;;1.27;0.47;;;12.10;99.90;;;;;;5070139;28;20581;-72
2024/01/22 07:02:26;;;;;;;1.10;0.37;;;12.10;99.90;;;;;;5077548;28;20180;-73
2024/01/22 07:04:53;;;;;;;1.20;0.40;;;12.20;99.90;;;;;;5080553;28;20681;-73
2024/01/22 07:07:18;;;;;;;1.10;0.40;;;12.30;99.90;;;;;;5072121;28;20657;-73
2024/01/22 07:09:44;;;;;;;1.40;0.40;;;12.30;99.90;;;;;;5069987;28;20587;-74
2024/01/22 07:12:10;;;;;;;1.20;0.40;;;12.30;99.90;;;;;;5070797;28;20645;-72
2024/01/22 07:14:36;;;;;;;2.90;0.67;;;12.40;99.90;;;;;;5052050;28;20176;-73
2024/01/22 07:17:03;;;;;;;1.20;0.40;;;12.40;99.90;;;;;;5069001;28;20730;-73
2024/01/22 07:19:29;;;;;;;1.27;0.40;;;12.50;99.90;;;;;;5069045;28;20184;-73
2024/01/22 07:21:54;;;;;;;1.60;0.50;;;12.60;99.90;;;;;;5069517;28;20650;-73
2024/01/22 07:24:20;;;;;;;1.20;0.40;;;12.60;99.90;;;;;;5070701;28;20579;-73
2024/01/22 07:26:46;;;;;;;1.83;0.40;;;12.60;99.90;;;;;;5073566;28;20212;-73
2024/01/22 07:29:12;;;;;;;1.10;0.40;;;12.60;99.90;;;;;;5068537;28;20593;-73
2024/01/22 07:31:38;;;;;;;1.20;0.50;;;12.70;99.90;;;;;;5069968;28;20184;-73
2024/01/22 07:34:05;;;;;;;1.30;0.50;;;12.70;99.90;;;;;;5051828;28;20583;-73
2024/01/22 07:36:31;;;;;;;1.33;0.50;;;12.70;99.90;;;;;;5067673;28;20253;-73
2024/01/22 07:38:58;;;;;;;1.50;0.60;;;12.80;99.90;;;;;;5070004;28;21131;-73
2024/01/22 07:41:24;;;;;;;1.10;0.43;;;12.80;99.90;;;;;;5070601;28;20631;-73
2024/01/22 07:43:49;;;;;;;1.20;0.53;;;12.80;99.90;;;;;;5070174;28;20582;-74
2024/01/22 07:46:15;;;;;;;1.20;0.60;;;12.80;99.90;;;;;;5069144;28;20982;-72
2024/01/22 07:48:42;;;;;;;1.30;0.50;;;12.90;99.90;;;;;;5070053;28;20280;-73
2024/01/22 07:51:08;;;;;;;1.60;0.60;;;12.90;99.90;;;;;;5070280;28;21336;-73
2024/01/22 07:53:34;;;;;;;1.30;0.60;;;13.00;99.90;;;;;;5070232;28;20187;-73
2024/01/22 07:55:59;;;;;;;1.73;0.57;;;13.00;99.90;;;;;;5068385;28;20270;-73
2024/01/22 07:58:25;;;;;;;1.20;0.50;;;13.00;99.90;;;;;;5070009;28;20208;-73
2024/01/22 08:00:51;;;;;;;1.20;0.50;;;13.00;99.90;;;;;;5068970;28;20164;-74
2024/01/22 08:03:16;;;;;;;1.30;0.50;;;13.10;99.90;;;;;;5070010;28;20168;-73
2024/01/22 08:05:42;;;;;;;1.60;0.53;;;13.10;99.90;;;;;;5067786;28;20180;-73
2024/01/22 08:08:11;;;;;;;1.60;0.70;;;13.10;99.90;;;;;;5051991;28;20220;-73
2024/01/22 08:10:37;;;;;;;1.43;0.60;;;13.10;99.90;;;;;;5068718;28;20525;-73
2024/01/22 08:13:03;;;;;;;1.40;0.50;;;13.20;99.90;;;;;;5068750;28;20583;-73
2024/01/22 08:15:29;;;;;;;1.40;0.60;;;13.20;99.90;;;;;;5064637;28;20183;-73
2024/01/22 08:17:55;;;;;;;1.97;0.50;;;13.20;99.90;;;;;;5061387;28;20622;-73
2024/01/22 08:20:21;;;;;;;2.00;0.60;;;13.20;99.90;;;;;;5069564;28;20603;-73
2024/01/22 08:22:47;;;;;;;3.10;0.60;;;13.20;99.90;;;;;;5068267;28;20586;-73
2024/01/22 08:25:18;;;;;;;1.60;0.53;;;13.30;99.90;;;;;;5067703;28;20271;-73
2024/01/22 08:27:45;;;;;;;1.93;0.60;;;13.30;99.90;;;;;;5069108;28;20668;-73
2024/01/22 08:30:12;;;;;;;1.60;0.70;;;13.30;99.90;;;;;;5070056;28;20593;-73
2024/01/22 08:32:38;;;;;;;2.63;0.80;;;13.30;99.90;;;;;;5069971;28;20582;-73
2024/01/22 08:35:04;;;;;;;1.90;0.60;;;13.30;99.90;;;;;;5069495;28;20579;-73
2024/01/22 08:37:32;;;;;;;2.23;0.60;;;13.30;99.90;;;;;;5069748;28;20558;-73
2024/01/22 08:39:58;;;;;;;2.13;0.50;;;13.40;99.90;;;;;;5065344;28;20586;-73
2024/01/22 08:42:26;;;;;;;1.53;0.60;;;13.40;99.90;;;;;;5074576;28;20973;-73
2024/01/22 08:44:52;;;;;;;2.83;0.63;;;13.40;99.90;;;;;;5072979;28;20552;-73
2024/01/22 08:47:18;;;;;;;1.30;0.60;;;13.40;99.90;;;;;;5071920;28;20649;-74
2024/01/22 08:49:43;;;;;;;1.47;0.60;;;13.40;99.90;;;;;;5072358;28;20188;-73
2024/01/22 08:52:09;;;;;;;2.03;0.70;;;13.50;99.90;;;;;;5073729;28;20172;-72
2024/01/22 08:54:35;;;;;;;1.43;0.50;;;13.50;99.90;;;;;;5071829;28;20196;-73
2024/01/22 08:57:01;;;;;;;2.97;0.80;;;13.60;99.90;;;;;;5071637;28;20273;-73
2024/01/22 08:59:26;;;;;;;1.50;0.60;;;13.60;99.90;;;;;;5055238;28;20168;-72
2024/01/22 09:01:52;;;;;;;1.30;0.57;;;13.60;99.90;;;;;;5055158;28;20188;-73
2024/01/22 09:04:18;;;;;;;1.37;0.63;;;13.60;99.90;;;;;;5088492;28;20588;-72
2024/01/22 09:06:43;;;;;;;1.40;0.50;;;13.60;99.90;;;;;;5089760;28;20200;-72
2024/01/22 09:09:09;;;;;;;1.50;0.60;;;13.60;99.90;;;;;;5089041;28;20218;-72
2024/01/22 09:11:35;;;;;;;1.40;0.60;;;13.70;99.90;;;;;;5071989;28;20241;-75
2024/01/22 09:14:01;;;;;;;1.40;0.60;;;13.70;99.90;;;;;;5055295;28;20173;-75
2024/01/22 09:16:27;;;;;;;1.50;0.70;;;13.80;99.90;;;;;;5071673;28;21379;-75
2024/01/22 09:18:53;;;;;;;1.40;0.50;;;13.90;99.90;;;;;;5074515;28;20211;-75
2024/01/22 09:21:18;;;;;;;1.40;0.50;;;13.90;99.90;;;;;;5073465;28;20947;-75
2024/01/22 09:23:44;;;;;;;1.70;0.50;;;14.00;99.90;;;;;;5073034;28;20718;-75
2024/01/22 09:26:10;;;;;;;1.20;0.60;;;14.00;99.90;;;;;;5054174;28;20200;-76
2024/01/22 09:28:36;;;;;;;5.00;0.60;;;14.10;99.90;;;;;;5072831;28;20200;-75
2024/01/22 09:31:01;;;;;;;2.73;0.70;;;14.10;99.90;;;;;;5072076;28;20206;-75
2024/01/22 09:33:27;;;;;;;2.20;0.67;;;14.20;99.90;;;;;;5072101;28;20583;-75
2024/01/22 09:35:53;;;;;;;1.73;0.63;;;14.20;99.90;;;;;;5071389;28;20306;-75
2024/01/22 09:38:19;;;;;;;2.50;0.70;;;14.40;99.90;;;;;;5071759;28;20200;-75
2024/01/22 09:40:45;;;;;;;2.90;1.00;;;14.50;99.90;;;;;;5054795;28;21148;-75
2024/01/22 09:43:10;;;;;;;4.30;1.13;;;14.60;99.90;;;;;;5072894;28;20267;-75
2024/01/22 09:45:36;;;;;;;7.13;1.60;;;14.70;99.90;;;;;;5071887;28;20653;-75
2024/01/22 09:48:03;;;;;;;5.40;1.33;;;14.90;99.90;;;;;;5054403;28;20192;-75
2024/01/22 09:50:29;;;;;;;3.30;0.80;;;15.00;99.90;;;;;;5062818;28;20650;-76
2024/01/22 09:53:04;;;;;;;6.13;0.87;;;15.10;99.90;;;;;;5071509;28;20602;-76
2024/01/22 09:55:30;;;;;;;3.73;0.90;;;15.20;99.90;;;;;;5073052;28;20593;-76
2024/01/22 09:57:59;;;;;;;2.50;0.70;;;15.30;99.90;;;;;;5070891;28;20646;-76
2024/01/22 10:00:26;;;;;;;4.77;0.90;;;15.30;99.90;;;;;;5054670;28;20633;-75
2024/01/22 10:02:52;;;;;;;4.43;1.10;;;15.40;99.90;;;;;;5071798;28;20605;-75
2024/01/22 10:05:19;;;;;;;3.50;1.10;;;15.50;99.90;;;;;;5071861;28;21451;-74
2024/01/22 10:07:47;;;;;;;4.93;1.00;;;15.50;99.90;;;;;;5070805;28;20641;-75
2024/01/22 10:10:13;;;;;;;4.57;1.13;;;15.50;99.90;;;;;;5053245;28;20597;-75
2024/01/22 10:12:58;;;;;;;3.50;0.80;;;15.50;99.90;;;;;;5072203;28;21238;-75
2024/01/22 10:15:26;;;;;;;5.93;0.73;;;15.50;99.90;;;;;;5071799;28;20195;-75
2024/01/22 10:17:52;;;;;;;2.87;0.77;;;15.50;99.90;;;;;;5070666;28;20638;-75
2024/01/22 10:20:22;;;;;;;2.40;0.87;;;15.50;99.90;;;;;;5070782;28;20615;-74
2024/01/22 10:22:48;;;;;;;3.60;0.80;;;15.50;99.90;;;;;;5072074;28;20636;-74
2024/01/22 10:25:17;;;;;;;2.63;0.70;;;15.50;99.90;;;;;;5071488;28;21258;-75
2024/01/22 10:27:42;;;;;;;4.10;0.80;;;15.40;99.90;;;;;;5053795;28;20642;-74
2024/01/22 10:30:14;;;;;;;1.97;0.70;;;15.40;99.90;;;;;;5070553;28;21220;-75
2024/01/22 10:32:39;;;;;;;3.27;0.70;;;15.30;99.90;;;;;;5074455;28;20583;-75
2024/01/22 10:35:21;;;;;;;2.00;0.60;;;15.30;99.90;;;;;;5070190;28;20606;-74
2024/01/22 10:38:04;;;;;;;2.63;0.70;;;15.30;99.90;;;;;;5082478;28;20565;-75
2024/01/22 10:40:30;;;;;;;2.90;0.83;;;15.30;99.90;;;;;;5071742;28;20629;-75
2024/01/22 10:42:56;;;;;;;1.90;0.83;;;15.30;99.90;;;;;;5070383;28;20589;-75
2024/01/22 10:45:25;;;;;;;1.50;0.53;;;15.20;99.90;;;;;;5069945;28;21167;-75
2024/01/22 10:47:54;;;;;;;1.30;0.50;;;15.20;99.90;;;;;;5071255;28;21005;-75
2024/01/22 10:50:20;;;;;;;1.37;0.60;;;15.20;99.90;;;;;;5037156;28;20660;-76
2024/01/22 10:52:48;;;;;;;1.60;0.67;;;15.20;99.90;;;;;;5069976;28;20999;-76
2024/01/22 10:55:14;;;;;;;1.67;0.80;;;15.20;99.90;;;;;;5069651;28;20586;-74
2024/01/22 10:57:43;;;;;;;1.20;0.40;;;15.20;99.90;;;;;;5053376;28;21201;-76
2024/01/22 11:00:14;;;;;;;1.50;0.40;;;15.10;99.90;;;;;;5053172;28;20173;-77
2024/01/22 11:02:46;;;;;;;1.20;0.40;;;15.10;99.90;;;;;;5069093;28;20582;-76
2024/01/22 11:05:14;;;;;;;1.27;0.40;;;15.10;99.90;;;;;;5067488;28;20704;-77
2024/01/22 11:07:44;;;;;;;1.20;0.40;;;15.00;99.90;;;;;;5069672;28;20991;-77
2024/01/22 11:10:11;;;;;;;1.57;0.40;;;15.00;99.90;;;;;;5072004;28;20687;-73
2024/01/22 11:12:45;;;;;;;1.70;0.40;;;14.90;99.90;;;;;;5071005;28;20664;-74
2024/01/22 11:15:11;;;;;;;1.70;0.40;;;14.90;99.90;;;;;;5070489;28;20650;-73
2024/01/22 11:17:36;;;;;;;1.23;0.40;;;14.80;99.90;;;;;;5069727;28;20607;-74
2024/01/22 11:20:16;;;;;;;1.10;0.30;;;14.80;99.90;;;;;;5068856;28;20919;-74
2024/01/22 11:22:42;;;;;;;1.20;0.40;;;14.70;99.90;;;;;;5067831;28;20457;-73
2024/01/22 11:25:13;;;;;;;1.10;0.40;;;14.80;99.90;;;;;;5070436;28;20578;-73
2024/01/22 11:27:40;;;;;;;1.20;0.40;;;14.80;99.90;;;;;;5069621;28;20204;-74
2024/01/22 11:30:21;;;;;;;1.50;0.40;;;14.70;99.90;;;;;;5069433;28;20575;-73
2024/01/22 11:32:47;;;;;;;1.07;0.30;;;14.70;99.90;;;;;;5070829;28;20582;-73
2024/01/22 11:35:35;;;;;;;1.50;0.40;;;14.70;99.90;;;;;;5069190;28;20706;-72
2024/01/22 11:38:02;;;;;;;1.23;0.40;;;14.70;99.90;;;;;;5068679;28;20618;-73
2024/01/22 11:40:47;;;;;;;1.10;0.40;;;14.60;99.90;;;;;;5069320;28;20610;-73
2024/01/22 11:43:17;;;;;;;1.20;0.50;;;14.60;99.90;;;;;;5045289;28;20601;-73
2024/01/22 11:45:50;;;;;;;1.50;0.40;;;14.60;99.90;;;;;;5068221;28;20596;-74
2024/01/22 11:48:17;;;;;;;1.40;0.40;;;14.50;99.90;;;;;;5070261;28;20940;-73
2024/01/22 11:50:55;;;;;;;1.10;0.40;;;14.50;99.90;;;;;;5052016;28;20666;-73
2024/01/22 11:53:21;;;;;;;1.47;0.40;;;14.50;99.90;;;;;;5069380;28;20659;-74
2024/01/22 11:55:59;;;;;;;1.20;0.40;;;14.50;99.90;;;;;;5068525;28;20936;-73
2024/01/22 11:58:24;;;;;;;1.70;0.60;;;14.50;99.90;;;;;;5052159;28;20208;-72
2024/01/22 12:00:52;;;;;;;1.40;0.60;;;14.50;99.90;;;;;;5069688;28;20578;-72
2024/01/22 12:03:29;;;;;;;2.27;0.63;;;14.50;99.90;;;;;;5070563;28;20168;-72
2024/01/22 12:06:04;;;;;;;1.70;0.50;;;14.50;99.90;;;;;;5068394;28;20643;-72
2024/01/22 12:08:31;;;;;;;1.50;0.57;;;14.50;99.90;;;;;;5069151;28;21218;-77
2024/01/22 12:11:07;;;;;;;1.90;0.50;;;14.50;99.90;;;;;;5070901;28;20579;-77
2024/01/22 12:13:33;;;;;;;2.63;0.60;;;14.50;99.90;;;;;;5075747;28;20621;-76
2024/01/22 12:15:58;;;;;;;1.57;0.67;;;14.50;99.90;;;;;;5074375;28;21188;-77
2024/01/22 12:18:25;;;;;;;3.50;0.97;;;14.50;99.90;;;;;;5074960;28;20618;-77
2024/01/22 12:20:51;;;;;;;3.97;1.10;;;14.40;99.90;;;;;;5073315;28;20172;-77
2024/01/22 12:23:36;;;;;;;2.93;1.00;;;14.40;99.90;;;;;;5059621;28;20582;-77
2024/01/22 12:26:02;;;;;;;4.00;1.10;;;14.30;99.90;;;;;;5073113;28;20656;-78
2024/01/22 12:28:28;;;;;;;3.40;1.10;;;14.30;99.90;;;;;;5083291;28;20651;-78
2024/01/22 12:31:01;;;;;;;3.97;1.10;;;14.20;99.90;;;;;;5078712;28;20595;-78
2024/01/22 12:33:31;;;;;;;4.33;1.20;;;14.10;99.90;;;;;;5065244;28;20601;-79
2024/01/22 12:36:14;;;;;;;2.70;0.90;;;14.00;99.90;;;;;;5073117;28;20951;-79
2024/01/22 12:38:53;;;;;;;2.70;0.93;;;13.90;99.90;;;;;;5074415;28;20608;-79
2024/01/22 12:41:21;;;;;;;2.37;0.83;;;13.90;99.90;;;;;;5074231;28;21048;-79
2024/01/22 12:43:47;;;;;;;4.33;1.10;;;13.90;99.90;;;;;;5073302;28;20938;-79
2024/01/22 12:46:18;;;;;;;3.77;1.00;;;13.80;99.90;;;;;;5076537;28;20662;-79